createdAt,value
2022-11-29T00:01:36.504Z,11.60
2022-11-29T00:04:05.165Z,7.82
2022-11-29T00:06:34.427Z,15.48
2022-11-29T00:09:06.606Z,15.48
2022-11-29T00:11:55.770Z,18.65
2022-11-29T00:14:27.078Z,13.10
2022-11-29T00:16:59.547Z,13.90
2022-11-29T00:19:28.434Z,9.05
2022-11-29T00:21:56.695Z,13.23
2022-11-29T00:24:24.597Z,10.70
2022-11-29T00:26:52.717Z,11.48
2022-11-29T00:29:20.647Z,11.15
2022-11-29T00:31:48.664Z,15.48
2022-11-29T00:34:16.688Z,10.07
2022-11-29T00:36:44.654Z,10.18
2022-11-29T00:39:12.996Z,8.77
2022-11-29T00:41:40.992Z,7.88
2022-11-29T00:44:10.546Z,6.03
2022-11-29T00:46:40.865Z,8.25
2022-11-29T00:49:09.004Z,9.45
2022-11-29T00:51:37.135Z,12.15
2022-11-29T00:54:05.324Z,8.85
2022-11-29T00:56:33.292Z,8.35
2022-11-29T00:59:01.210Z,9.35
2022-11-29T01:01:29.275Z,10.05
2022-11-29T01:03:57.311Z,7.28
2022-11-29T01:06:25.243Z,5.57
2022-11-29T01:08:54.117Z,10.68
2022-11-29T01:11:25.260Z,7.78
2022-11-29T01:13:59.229Z,8.65
2022-11-29T01:16:30.374Z,7.95
2022-11-29T01:18:58.512Z,7.15
2022-11-29T01:21:26.754Z,8.60
2022-11-29T01:23:55.276Z,7.82
2022-11-29T01:26:26.024Z,5.80
2022-11-29T01:28:56.412Z,7.68
2022-11-29T01:31:30.759Z,6.57
2022-11-29T01:34:01.496Z,8.30
2022-11-29T01:36:30.083Z,7.30
2022-11-29T01:39:02.832Z,10.30
2022-11-29T01:41:33.500Z,6.78
2022-11-29T01:44:28.021Z,7.82
2022-11-29T01:46:56.880Z,10.73
2022-11-29T01:49:30.837Z,14.68
2022-11-29T01:52:01.162Z,10.20
2022-11-29T01:54:32.021Z,9.23
2022-11-29T01:57:02.811Z,9.02
2022-11-29T01:59:31.157Z,12.73
2022-11-29T02:02:06.133Z,11.18
2022-11-29T02:04:35.919Z,17.88
2022-11-29T02:07:04.405Z,18.63
2022-11-29T02:09:32.510Z,16.40
2022-11-29T02:12:44.896Z,16.52
2022-11-29T02:15:50.617Z,14.38
2022-11-29T02:18:32.884Z,9.25
2022-11-29T02:21:32.741Z,9.02
2022-11-29T02:24:29.763Z,9.75
2022-11-29T02:27:00.410Z,9.18
2022-11-29T02:29:46.852Z,10.40
2022-11-29T02:32:48.445Z,6.95
2022-11-29T02:35:25.495Z,6.90
2022-11-29T02:38:18.996Z,7.90
2022-11-29T02:40:58.636Z,7.18
2022-11-29T02:43:45.190Z,6.70
2022-11-29T02:46:51.467Z,7.45
2022-11-29T02:49:59.203Z,9.23
2022-11-29T02:52:49.272Z,9.57
2022-11-29T02:55:56.069Z,11.25
2022-11-29T03:01:32.264Z,6.90
2022-11-29T03:04:46.368Z,6.45
2022-11-29T03:07:41.659Z,6.63
2022-11-29T03:10:23.628Z,6.90
2022-11-29T03:12:54.001Z,6.45
2022-11-29T03:15:29.800Z,4.95
2022-11-29T03:18:13.698Z,6.18
2022-11-29T03:21:12.886Z,4.80
2022-11-29T03:23:40.977Z,4.38
2022-11-29T03:26:14.476Z,3.92
2022-11-29T03:29:09.405Z,4.82
2022-11-29T03:31:44.173Z,4.13
2022-11-29T03:34:27.268Z,3.92
2022-11-29T03:37:18.943Z,5.55
2022-11-29T03:40:13.115Z,11.38
2022-11-29T03:42:53.336Z,8.95
2022-11-29T03:45:34.012Z,10.45
2022-11-29T03:48:11.037Z,10.25
2022-11-29T03:50:43.784Z,8.07
2022-11-29T03:53:29.192Z,9.35
2022-11-29T03:56:00.615Z,16.35
2022-11-29T03:59:12.693Z,13.43
2022-11-29T04:04:55.932Z,8.82
2022-11-29T04:07:58.060Z,12.98
2022-11-29T04:10:38.367Z,19.27
2022-11-29T04:13:09.399Z,15.98
2022-11-29T04:16:11.721Z,12.02
2022-11-29T04:19:17.025Z,10.23
2022-11-29T04:21:56.518Z,7.63
2022-11-29T04:24:39.489Z,8.30
2022-11-29T04:27:29.417Z,8.73
2022-11-29T04:30:18.180Z,8.27
2022-11-29T04:33:23.601Z,11.05
2022-11-29T04:36:11.527Z,45.08
2022-11-29T04:39:01.047Z,20.13
2022-11-29T04:41:31.805Z,10.88
2022-11-29T04:44:13.297Z,12.70
2022-11-29T04:46:56.056Z,12.35
2022-11-29T04:49:27.012Z,6.45
2022-11-29T04:51:57.251Z,6.68
2022-11-29T04:54:32.144Z,6.32
2022-11-29T04:57:13.203Z,5.95
2022-11-29T05:00:07.347Z,7.47
2022-11-29T05:02:45.336Z,6.20
2022-11-29T05:05:22.080Z,9.48
2022-11-29T05:08:24.324Z,10.73
2022-11-29T05:11:06.933Z,9.65
2022-11-29T05:14:13.632Z,10.63
2022-11-29T05:16:49.618Z,12.45
2022-11-29T05:19:35.579Z,12.60
2022-11-29T05:22:22.099Z,8.05
2022-11-29T05:25:22.380Z,9.82
2022-11-29T05:28:05.673Z,11.30
2022-11-29T05:31:19.465Z,13.35
2022-11-29T05:34:12.558Z,8.45
2022-11-29T05:36:54.020Z,9.32
2022-11-29T05:39:47.987Z,10.95
2022-11-29T05:42:25.236Z,7.03
2022-11-29T05:45:28.706Z,5.35
2022-11-29T05:48:04.697Z,5.80
2022-11-29T05:51:11.081Z,7.10
2022-11-29T05:54:03.819Z,7.13
2022-11-29T05:56:48.758Z,28.25
2022-11-29T05:59:25.522Z,54.30
2022-11-29T06:02:02.056Z,30.77
2022-11-29T06:04:46.407Z,14.13
2022-11-29T06:07:33.438Z,13.75
2022-11-29T06:10:06.152Z,23.33
2022-11-29T06:12:36.229Z,26.10
2022-11-29T06:15:19.209Z,23.95
2022-11-29T06:17:59.658Z,16.23
2022-11-29T06:20:39.320Z,21.85
2022-11-29T06:23:30.160Z,19.30
2022-11-29T06:26:19.251Z,19.48
2022-11-29T06:29:11.072Z,19.65
2022-11-29T06:31:44.769Z,20.67
2022-11-29T06:34:30.726Z,12.40
2022-11-29T06:37:26.787Z,21.83
2022-11-29T06:39:56.113Z,34.28
2022-11-29T06:42:24.113Z,17.88
2022-11-29T06:44:52.523Z,16.85
2022-11-29T06:47:31.948Z,15.48
2022-11-29T06:50:04.194Z,16.30
2022-11-29T06:52:58.586Z,19.60
2022-11-29T06:55:58.399Z,15.93
2022-11-29T06:58:46.350Z,27.35
2022-11-29T07:01:23.195Z,74.45
2022-11-29T07:03:53.548Z,39.92
2022-11-29T07:06:24.820Z,24.38
2022-11-29T07:08:59.544Z,17.35
2022-11-29T07:11:28.656Z,11.23
2022-11-29T07:13:56.920Z,13.20
2022-11-29T07:16:32.152Z,11.18
2022-11-29T07:19:29.020Z,27.63
2022-11-29T07:22:01.956Z,30.25
2022-11-29T07:24:56.358Z,6.05
2022-11-29T07:27:47.430Z,13.35
2022-11-29T07:30:22.883Z,8.43
2022-11-29T07:33:00.549Z,8.45
2022-11-29T07:35:38.892Z,9.90
2022-11-29T07:38:19.494Z,37.30
2022-11-29T07:41:06.063Z,6.47
2022-11-29T07:43:55.947Z,18.77
2022-11-29T07:46:25.864Z,8.20
2022-11-29T07:48:53.804Z,11.68
2022-11-29T07:51:22.201Z,8.45
2022-11-29T07:53:50.205Z,13.90
2022-11-29T07:56:18.187Z,19.23
2022-11-29T07:58:46.298Z,12.10
2022-11-29T08:01:14.514Z,20.05
2022-11-29T08:03:42.950Z,14.90
2022-11-29T08:06:11.020Z,34.83
2022-11-29T08:08:43.722Z,38.15
2022-11-29T08:11:13.392Z,14.60
2022-11-29T08:13:41.229Z,7.45
2022-11-29T08:16:09.201Z,6.50
2022-11-29T08:18:37.442Z,6.38
2022-11-29T08:21:07.557Z,4.57
2022-11-29T08:23:36.787Z,9.50
2022-11-29T08:28:35.496Z,16.27
2022-11-29T08:31:05.264Z,14.38
2022-11-29T08:33:35.889Z,13.40
2022-11-29T08:36:13.051Z,7.18
2022-11-29T08:38:41.197Z,6.50
2022-11-29T08:41:12.104Z,3.78
2022-11-29T08:43:41.062Z,4.80
2022-11-29T08:46:11.446Z,5.55
2022-11-29T08:48:43.105Z,3.67
2022-11-29T08:51:11.045Z,4.63
2022-11-29T08:53:42.128Z,5.80
2022-11-29T08:56:49.348Z,5.93
2022-11-29T08:58:59.657Z,4.78
2022-11-29T09:01:29.502Z,8.15
2022-11-29T09:04:00.670Z,9.90
2022-11-29T09:06:33.039Z,8.18
2022-11-29T09:09:04.056Z,12.63
2022-11-29T09:11:34.764Z,6.60
2022-11-29T09:14:05.954Z,12.32
2022-11-29T09:16:36.778Z,9.27
2022-11-29T09:19:06.279Z,18.17
2022-11-29T09:21:38.869Z,33.95
2022-11-29T09:24:07.164Z,28.55
2022-11-29T09:26:37.057Z,43.95
2022-11-29T09:29:06.822Z,44.40
2022-11-29T09:31:35.611Z,51.70
2022-11-29T09:34:03.820Z,13.55
2022-11-29T09:36:31.934Z,23.00
2022-11-29T09:39:05.399Z,19.17
2022-11-29T09:41:47.091Z,12.80
2022-11-29T09:44:25.640Z,12.52
2022-11-29T09:47:12.381Z,21.55
2022-11-29T09:49:55.568Z,7.68
2022-11-29T09:52:26.085Z,13.65
2022-11-29T09:55:31.002Z,13.68
2022-11-29T09:58:01.269Z,7.85
2022-11-29T10:00:31.186Z,8.23
2022-11-29T10:03:13.727Z,6.32
2022-11-29T10:05:47.674Z,6.82
2022-11-29T10:08:24.826Z,7.95
2022-11-29T10:10:58.884Z,6.68
2022-11-29T10:13:34.438Z,17.20
2022-11-29T10:16:24.344Z,7.68
2022-11-29T10:19:27.201Z,20.88
2022-11-29T10:22:02.074Z,23.67
2022-11-29T10:24:32.784Z,12.20
2022-11-29T10:27:00.876Z,8.48
2022-11-29T10:29:29.076Z,8.23
2022-11-29T10:31:59.484Z,8.13
2022-11-29T10:34:31.178Z,17.92
2022-11-29T10:37:02.548Z,14.73
2022-11-29T10:39:39.870Z,11.30
2022-11-29T10:42:35.783Z,6.97
2022-11-29T10:45:05.703Z,7.40
2022-11-29T10:47:33.971Z,6.95
2022-11-29T10:50:02.693Z,9.82
2022-11-29T10:52:30.828Z,16.63
2022-11-29T10:55:00.364Z,14.00
2022-11-29T10:57:28.424Z,11.00
2022-11-29T11:00:07.375Z,11.93
2022-11-29T11:02:36.179Z,7.90
2022-11-29T11:05:18.842Z,8.80
2022-11-29T11:07:57.698Z,12.85
2022-11-29T11:10:31.105Z,7.82
2022-11-29T11:13:19.593Z,12.00
2022-11-29T11:15:47.730Z,9.05
2022-11-29T11:18:24.570Z,13.90
2022-11-29T11:21:02.243Z,11.20
2022-11-29T11:23:39.883Z,11.57
2022-11-29T11:26:14.815Z,10.45
2022-11-29T11:28:52.734Z,11.05
2022-11-29T11:31:34.639Z,10.25
2022-11-29T11:34:39.080Z,7.57
2022-11-29T11:37:16.403Z,7.50
2022-11-29T11:39:47.119Z,11.48
2022-11-29T11:42:37.679Z,12.57
2022-11-29T11:45:23.641Z,7.43
2022-11-29T11:48:13.836Z,11.02
2022-11-29T11:50:57.787Z,9.48
2022-11-29T11:53:36.807Z,9.10
2022-11-29T11:56:10.879Z,5.95
2022-11-29T11:58:44.751Z,6.28
2022-11-29T12:01:12.774Z,5.43
2022-11-29T12:04:10.566Z,6.13
2022-11-29T12:06:45.349Z,7.03
2022-11-29T12:09:19.601Z,11.32
2022-11-29T12:11:57.213Z,25.48
2022-11-29T12:15:07.371Z,23.52
2022-11-29T12:17:44.111Z,28.85
2022-11-29T12:20:27.770Z,20.95
2022-11-29T12:23:13.929Z,28.70
2022-11-29T12:26:19.274Z,23.90
2022-11-29T12:31:55.480Z,50.72
2022-11-29T12:34:35.881Z,32.58
2022-11-29T12:37:30.381Z,20.15
2022-11-29T12:40:23.928Z,14.82
2022-11-29T12:42:54.766Z,48.58
2022-11-29T12:45:27.494Z,21.92
2022-11-29T12:48:32.985Z,24.55
2022-11-29T12:51:31.492Z,13.05
2022-11-29T12:54:16.060Z,13.13
2022-11-29T12:57:09.186Z,20.52
2022-11-29T13:00:01.385Z,19.25
2022-11-29T13:03:03.300Z,16.65
2022-11-29T13:05:43.162Z,12.88
2022-11-29T13:08:17.384Z,19.95
2022-11-29T13:11:03.847Z,36.70
2022-11-29T13:13:37.791Z,23.30
2022-11-29T13:16:30.902Z,23.65
2022-11-29T13:19:02.050Z,23.20
2022-11-29T13:21:44.357Z,17.35
2022-11-29T13:24:52.338Z,42.92
2022-11-29T13:27:30.171Z,42.83
2022-11-29T13:30:01.067Z,49.38
2022-11-29T13:32:36.529Z,35.85
2022-11-29T13:35:27.658Z,16.08
2022-11-29T13:38:02.313Z,11.35
2022-11-29T13:40:37.585Z,22.92
2022-11-29T13:43:23.417Z,42.78
2022-11-29T13:45:58.923Z,24.17
2022-11-29T13:48:45.800Z,24.80
2022-11-29T13:51:28.761Z,17.60
2022-11-29T13:53:59.886Z,17.20
2022-11-29T13:56:46.800Z,25.33
2022-11-29T13:59:30.004Z,23.60
2022-11-29T14:01:59.419Z,18.85
2022-11-29T14:04:27.483Z,15.13
2022-11-29T14:07:21.688Z,13.88
2022-11-29T14:10:05.982Z,11.15
2022-11-29T14:13:03.134Z,12.57
2022-11-29T14:15:33.550Z,16.58
2022-11-29T14:18:09.102Z,12.23
2022-11-29T14:20:39.833Z,9.80
2022-11-29T14:23:08.018Z,10.40
2022-11-29T14:26:02.663Z,11.57
2022-11-29T14:28:35.222Z,11.38
2022-11-29T14:31:05.257Z,10.35
2022-11-29T14:34:00.669Z,8.48
2022-11-29T14:36:43.631Z,17.75
2022-11-29T14:39:34.539Z,20.48
2022-11-29T14:42:18.924Z,16.60
2022-11-29T14:44:52.113Z,9.15
2022-11-29T14:47:32.112Z,19.75
2022-11-29T14:50:04.479Z,26.92
2022-11-29T14:52:40.828Z,32.88
2022-11-29T14:55:30.958Z,35.60
2022-11-29T14:58:02.345Z,69.05
2022-11-29T15:00:32.973Z,63.80
2022-11-29T15:03:00.952Z,48.05
2022-11-29T15:05:33.833Z,50.05
2022-11-29T15:08:28.103Z,29.55
2022-11-29T15:11:15.048Z,41.47
2022-11-29T15:14:02.515Z,32.70
2022-11-29T15:16:52.645Z,43.33
2022-11-29T15:19:39.078Z,41.00
2022-11-29T15:22:36.562Z,48.65
2022-11-29T15:25:32.115Z,50.97
2022-11-29T15:28:02.889Z,14.93
2022-11-29T15:30:36.021Z,8.25
2022-11-29T15:33:07.512Z,26.73
2022-11-29T15:35:36.847Z,16.33
2022-11-29T15:38:04.920Z,13.70
2022-11-29T15:40:37.425Z,19.27
2022-11-29T15:43:17.255Z,11.38
2022-11-29T15:45:57.089Z,28.80
2022-11-29T15:48:31.118Z,51.85
2022-11-29T15:51:14.463Z,40.20
2022-11-29T15:54:13.269Z,33.47
2022-11-29T15:56:44.474Z,45.45
2022-11-29T15:59:38.825Z,80.50
2022-11-29T16:02:21.883Z,36.47
2022-11-29T16:04:54.160Z,21.33
2022-11-29T16:07:24.853Z,13.98
2022-11-29T16:10:05.018Z,13.95
2022-11-29T16:12:32.989Z,14.48
2022-11-29T16:15:01.773Z,17.40
2022-11-29T16:17:35.005Z,18.67
2022-11-29T16:20:15.009Z,19.90
2022-11-29T16:22:43.327Z,22.98
2022-11-29T16:25:19.596Z,22.23
2022-11-29T16:27:47.942Z,23.20
2022-11-29T16:30:24.306Z,14.43
2022-11-29T16:33:03.697Z,17.95
2022-11-29T16:35:36.768Z,19.65
2022-11-29T16:38:05.453Z,21.23
2022-11-29T16:40:35.658Z,22.30
2022-11-29T16:43:03.628Z,25.40
2022-11-29T16:45:43.556Z,27.55
2022-11-29T16:48:30.536Z,15.15
2022-11-29T16:51:10.546Z,28.60
2022-11-29T16:53:42.686Z,19.50
2022-11-29T16:56:13.516Z,37.35
2022-11-29T16:59:20.626Z,38.40
2022-11-29T17:01:31.986Z,16.88
2022-11-29T17:06:29.759Z,20.30
2022-11-29T17:11:27.125Z,87.20
2022-11-29T17:13:55.109Z,55.53
2022-11-29T17:16:24.873Z,33.00
2022-11-29T17:18:53.057Z,13.73
2022-11-29T17:21:26.353Z,14.18
2022-11-29T17:23:54.721Z,11.82
2022-11-29T17:26:23.360Z,17.73
2022-11-29T17:28:52.293Z,14.88
2022-11-29T17:31:23.460Z,13.15
2022-11-29T17:33:51.997Z,26.80
2022-11-29T17:36:20.709Z,20.10
2022-11-29T17:38:49.302Z,17.25
2022-11-29T17:41:22.201Z,16.58
2022-11-29T17:43:51.860Z,11.00
2022-11-29T17:46:30.648Z,87.82
2022-11-29T17:49:01.208Z,36.33
2022-11-29T17:51:51.144Z,31.92
2022-11-29T17:54:17.892Z,16.73
2022-11-29T17:56:45.733Z,12.40
2022-11-29T17:59:13.666Z,10.23
2022-11-29T18:01:41.799Z,21.48
2022-11-29T18:06:40.546Z,8.95
2022-11-29T18:09:11.797Z,17.88
2022-11-29T18:11:47.633Z,22.23
2022-11-29T18:14:28.444Z,61.50
2022-11-29T18:16:56.784Z,68.47
2022-11-29T18:19:25.562Z,71.95
2022-11-29T18:21:53.549Z,21.50
2022-11-29T18:24:21.661Z,13.60
2022-11-29T18:26:49.843Z,14.15
2022-11-29T18:29:18.333Z,12.45
2022-11-29T18:31:46.869Z,14.15
2022-11-29T18:34:15.803Z,17.25
2022-11-29T18:36:46.523Z,26.95
2022-11-29T18:39:20.459Z,19.33
2022-11-29T18:41:50.424Z,19.02
2022-11-29T18:44:22.026Z,15.75
2022-11-29T18:46:50.712Z,12.75
2022-11-29T18:49:19.461Z,13.07
2022-11-29T18:51:50.082Z,12.32
2022-11-29T18:54:19.054Z,7.55
2022-11-29T18:56:51.537Z,8.43
2022-11-29T18:59:20.265Z,20.17
2022-11-29T19:01:49.086Z,20.10
2022-11-29T19:06:48.721Z,21.25
2022-11-29T19:09:21.570Z,11.73
2022-11-29T19:11:51.231Z,20.33
2022-11-29T19:14:20.533Z,23.27
2022-11-29T19:16:50.223Z,22.55
2022-11-29T19:19:21.773Z,29.50
2022-11-29T19:21:50.731Z,32.55
2022-11-29T19:24:19.469Z,37.45
2022-11-29T19:26:50.220Z,36.70
2022-11-29T19:31:47.563Z,28.13
2022-11-29T19:34:16.311Z,32.88
2022-11-29T19:36:45.554Z,27.35
2022-11-29T19:39:17.018Z,31.60
2022-11-29T19:41:48.260Z,31.38
2022-11-29T19:44:17.082Z,34.75
2022-11-29T19:46:48.931Z,46.78
2022-11-29T19:49:17.761Z,26.58
2022-11-29T19:54:15.100Z,39.63
2022-11-29T19:56:44.060Z,25.83
2022-11-29T19:59:12.220Z,90.85
2022-11-29T20:01:42.780Z,78.68
2022-11-29T20:04:13.399Z,43.28
2022-11-29T20:06:41.970Z,27.90
2022-11-29T20:09:12.353Z,26.67
2022-11-29T20:11:40.838Z,34.25
2022-11-29T20:14:12.316Z,42.47
2022-11-29T20:16:41.423Z,53.55
2022-11-29T20:21:43.045Z,37.60
2022-11-29T20:24:14.632Z,82.10
2022-11-29T20:26:45.517Z,44.38
2022-11-29T20:29:14.806Z,59.05
2022-11-29T20:31:49.634Z,63.75
2022-11-29T20:34:18.549Z,72.53
2022-11-29T20:37:15.008Z,57.05
2022-11-29T20:40:03.577Z,44.13
2022-11-29T20:42:44.881Z,43.90
2022-11-29T20:45:14.923Z,62.55
2022-11-29T20:47:55.830Z,42.30
2022-11-29T20:50:27.204Z,54.50
2022-11-29T20:53:10.721Z,40.40
2022-11-29T20:55:44.862Z,44.47
2022-11-29T20:58:16.863Z,56.95
2022-11-29T21:00:46.582Z,56.20
2022-11-29T21:03:16.253Z,55.47
2022-11-29T21:05:44.635Z,64.65
2022-11-29T21:08:13.714Z,24.63
2022-11-29T21:13:12.782Z,26.40
2022-11-29T21:15:41.137Z,29.52
2022-11-29T21:18:20.233Z,33.03
2022-11-29T21:21:04.959Z,38.65
2022-11-29T21:23:41.741Z,48.60
2022-11-29T21:26:21.007Z,37.13
2022-11-29T21:29:10.522Z,41.53
2022-11-29T21:31:38.917Z,55.92
2022-11-29T21:34:06.938Z,54.83
2022-11-29T21:36:36.436Z,52.53
2022-11-29T21:39:06.256Z,39.83
2022-11-29T21:41:34.574Z,36.65
2022-11-29T21:44:07.472Z,63.85
2022-11-29T21:46:36.470Z,39.25
2022-11-29T21:49:05.123Z,16.17
2022-11-29T21:51:33.156Z,14.32
2022-11-29T21:54:02.378Z,12.52
2022-11-29T21:56:30.263Z,15.77
2022-11-29T21:58:58.343Z,18.38
2022-11-29T22:01:27.728Z,20.95
2022-11-29T22:06:24.496Z,37.70
2022-11-29T22:08:52.889Z,44.22
2022-11-29T22:11:31.384Z,37.92
2022-11-29T22:14:13.853Z,41.65
2022-11-29T22:16:58.977Z,89.20
2022-11-29T22:19:30.952Z,20.55
2022-11-29T22:22:10.974Z,20.98
2022-11-29T22:24:39.009Z,46.97
2022-11-29T22:27:06.987Z,52.22
2022-11-29T22:29:34.958Z,52.80
2022-11-29T22:32:02.973Z,40.33
2022-11-29T22:34:31.036Z,34.63
2022-11-29T22:36:58.961Z,34.42
2022-11-29T22:39:27.055Z,37.17
2022-11-29T22:41:55.465Z,36.40
2022-11-29T22:44:24.386Z,32.35
2022-11-29T22:46:52.696Z,20.52
2022-11-29T22:49:20.832Z,31.23
2022-11-29T22:51:48.719Z,67.28
2022-11-29T22:54:17.628Z,35.45
2022-11-29T22:59:14.619Z,20.08
2022-11-29T23:01:43.263Z,24.10
2022-11-29T23:04:13.340Z,25.55
2022-11-29T23:06:45.963Z,19.80
2022-11-29T23:09:17.074Z,20.58
2022-11-29T23:11:46.771Z,19.13
2022-11-29T23:14:14.809Z,19.60
2022-11-29T23:16:42.842Z,16.75
2022-11-29T23:19:11.047Z,25.85
2022-11-29T23:21:41.033Z,18.63
2022-11-29T23:24:09.103Z,24.70
2022-11-29T23:26:40.438Z,25.17
2022-11-29T23:29:14.027Z,23.70
2022-11-29T23:31:42.580Z,15.52
2022-11-29T23:34:10.723Z,29.48
2022-11-29T23:36:39.318Z,16.10
2022-11-29T23:39:07.857Z,14.23
2022-11-29T23:41:38.789Z,11.48
2022-11-29T23:44:07.109Z,12.90
2022-11-29T23:46:35.546Z,13.05
2022-11-29T23:49:03.947Z,14.90
2022-11-29T23:51:31.867Z,14.07
2022-11-29T23:53:59.911Z,13.32
2022-11-29T23:56:27.843Z,13.68
2022-11-29T23:58:55.896Z,16.27
